sensor_id;sensor_type;location;lat;lon;timestamp;P1;durP1;ratioP1;P2;durP2;ratioP2
26598;SDS011;14240;51.064;16.612;2023-04-24T00:00:08;25.55;;;15.80;;
26598;SDS011;14240;51.064;16.612;2023-04-24T00:02:35;30.17;;;16.92;;
26598;SDS011;14240;51.064;16.612;2023-04-24T00:05:05;28.17;;;16.83;;
26598;SDS011;14240;51.064;16.612;2023-04-24T00:07:31;23.38;;;15.57;;
26598;SDS011;14240;51.064;16.612;2023-04-24T00:09:57;26.23;;;15.60;;
26598;SDS011;14240;51.064;16.612;2023-04-24T00:12:23;26.60;;;17.13;;
26598;SDS011;14240;51.064;16.612;2023-04-24T00:14:49;27.48;;;16.25;;
26598;SDS011;14240;51.064;16.612;2023-04-24T00:17:15;24.95;;;16.58;;
26598;SDS011;14240;51.064;16.612;2023-04-24T00:19:41;28.00;;;16.58;;
26598;SDS011;14240;51.064;16.612;2023-04-24T00:22:07;25.73;;;16.13;;
26598;SDS011;14240;51.064;16.612;2023-04-24T00:24:32;27.05;;;16.30;;
26598;SDS011;14240;51.064;16.612;2023-04-24T00:26:58;22.90;;;15.60;;
26598;SDS011;14240;51.064;16.612;2023-04-24T00:29:25;25.65;;;16.35;;
26598;SDS011;14240;51.064;16.612;2023-04-24T00:31:52;22.77;;;15.13;;
26598;SDS011;14240;51.064;16.612;2023-04-24T00:34:17;24.58;;;15.52;;
26598;SDS011;14240;51.064;16.612;2023-04-24T00:36:43;22.90;;;14.43;;
26598;SDS011;14240;51.064;16.612;2023-04-24T00:39:09;23.55;;;14.95;;
26598;SDS011;14240;51.064;16.612;2023-04-24T00:41:35;23.65;;;15.27;;
26598;SDS011;14240;51.064;16.612;2023-04-24T00:44:01;25.65;;;14.95;;
26598;SDS011;14240;51.064;16.612;2023-04-24T00:46:27;23.85;;;14.55;;
26598;SDS011;14240;51.064;16.612;2023-04-24T00:48:53;21.15;;;13.52;;
26598;SDS011;14240;51.064;16.612;2023-04-24T00:51:20;23.20;;;15.85;;
26598;SDS011;14240;51.064;16.612;2023-04-24T00:53:46;22.70;;;14.80;;
26598;SDS011;14240;51.064;16.612;2023-04-24T00:56:12;27.63;;;16.10;;
26598;SDS011;14240;51.064;16.612;2023-04-24T00:58:38;25.42;;;16.55;;
26598;SDS011;14240;51.064;16.612;2023-04-24T01:01:04;28.20;;;16.25;;
26598;SDS011;14240;51.064;16.612;2023-04-24T01:03:32;26.13;;;16.38;;
26598;SDS011;14240;51.064;16.612;2023-04-24T01:05:58;25.30;;;16.10;;
26598;SDS011;14240;51.064;16.612;2023-04-24T01:08:24;26.02;;;15.77;;
26598;SDS011;14240;51.064;16.612;2023-04-24T01:10:53;31.92;;;15.70;;
26598;SDS011;14240;51.064;16.612;2023-04-24T01:13:18;26.45;;;16.77;;
26598;SDS011;14240;51.064;16.612;2023-04-24T01:15:45;27.75;;;16.45;;
26598;SDS011;14240;51.064;16.612;2023-04-24T01:18:11;28.85;;;16.85;;
26598;SDS011;14240;51.064;16.612;2023-04-24T01:20:39;27.50;;;15.52;;
26598;SDS011;14240;51.064;16.612;2023-04-24T01:23:06;25.50;;;15.68;;
26598;SDS011;14240;51.064;16.612;2023-04-24T01:25:32;24.00;;;15.80;;
26598;SDS011;14240;51.064;16.612;2023-04-24T01:27:58;28.65;;;15.25;;
26598;SDS011;14240;51.064;16.612;2023-04-24T01:30:25;25.27;;;14.50;;
26598;SDS011;14240;51.064;16.612;2023-04-24T01:32:51;25.30;;;15.20;;
26598;SDS011;14240;51.064;16.612;2023-04-24T01:35:18;21.05;;;14.80;;
26598;SDS011;14240;51.064;16.612;2023-04-24T01:37:44;21.30;;;13.98;;
26598;SDS011;14240;51.064;16.612;2023-04-24T01:40:10;23.80;;;14.35;;
26598;SDS011;14240;51.064;16.612;2023-04-24T01:42:36;23.83;;;14.90;;
26598;SDS011;14240;51.064;16.612;2023-04-24T01:45:03;22.90;;;13.95;;
26598;SDS011;14240;51.064;16.612;2023-04-24T01:47:30;22.50;;;13.95;;
26598;SDS011;14240;51.064;16.612;2023-04-24T01:49:57;21.05;;;13.20;;
26598;SDS011;14240;51.064;16.612;2023-04-24T01:52:23;21.50;;;13.88;;
26598;SDS011;14240;51.064;16.612;2023-04-24T01:54:49;22.77;;;13.90;;
26598;SDS011;14240;51.064;16.612;2023-04-24T01:57:15;25.95;;;14.15;;
26598;SDS011;14240;51.064;16.612;2023-04-24T01:59:42;25.65;;;13.45;;
26598;SDS011;14240;51.064;16.612;2023-04-24T02:02:08;21.30;;;13.93;;
26598;SDS011;14240;51.064;16.612;2023-04-24T02:04:33;25.05;;;14.35;;
26598;SDS011;14240;51.064;16.612;2023-04-24T02:06:59;18.23;;;12.63;;
26598;SDS011;14240;51.064;16.612;2023-04-24T02:09:25;19.55;;;13.85;;
26598;SDS011;14240;51.064;16.612;2023-04-24T02:11:51;19.25;;;12.98;;
26598;SDS011;14240;51.064;16.612;2023-04-24T02:14:17;17.45;;;12.23;;
26598;SDS011;14240;51.064;16.612;2023-04-24T02:16:43;19.45;;;13.63;;
26598;SDS011;14240;51.064;16.612;2023-04-24T02:19:09;20.15;;;12.48;;
26598;SDS011;14240;51.064;16.612;2023-04-24T02:21:35;18.35;;;12.02;;
26598;SDS011;14240;51.064;16.612;2023-04-24T02:24:01;17.90;;;11.57;;
26598;SDS011;14240;51.064;16.612;2023-04-24T02:26:26;16.55;;;11.70;;
26598;SDS011;14240;51.064;16.612;2023-04-24T02:28:52;20.60;;;12.30;;
26598;SDS011;14240;51.064;16.612;2023-04-24T02:31:18;18.50;;;12.30;;
26598;SDS011;14240;51.064;16.612;2023-04-24T02:33:44;17.95;;;11.70;;
26598;SDS011;14240;51.064;16.612;2023-04-24T02:36:09;20.85;;;11.50;;
26598;SDS011;14240;51.064;16.612;2023-04-24T02:38:35;17.30;;;11.40;;
26598;SDS011;14240;51.064;16.612;2023-04-24T02:41:01;29.75;;;17.00;;
26598;SDS011;14240;51.064;16.612;2023-04-24T02:43:28;22.47;;;13.97;;
26598;SDS011;14240;51.064;16.612;2023-04-24T02:45:53;15.02;;;10.93;;
26598;SDS011;14240;51.064;16.612;2023-04-24T02:48:19;18.35;;;11.70;;
26598;SDS011;14240;51.064;16.612;2023-04-24T02:50:46;20.23;;;12.32;;
26598;SDS011;14240;51.064;16.612;2023-04-24T02:53:12;20.80;;;12.10;;
26598;SDS011;14240;51.064;16.612;2023-04-24T02:55:39;19.00;;;11.18;;
26598;SDS011;14240;51.064;16.612;2023-04-24T02:58:05;20.30;;;11.82;;
26598;SDS011;14240;51.064;16.612;2023-04-24T03:00:31;18.38;;;12.15;;
26598;SDS011;14240;51.064;16.612;2023-04-24T03:02:57;22.00;;;13.02;;
26598;SDS011;14240;51.064;16.612;2023-04-24T03:05:22;19.13;;;12.02;;
26598;SDS011;14240;51.064;16.612;2023-04-24T03:07:48;18.27;;;10.70;;
26598;SDS011;14240;51.064;16.612;2023-04-24T03:10:14;16.45;;;11.85;;
26598;SDS011;14240;51.064;16.612;2023-04-24T03:12:40;19.48;;;12.93;;
26598;SDS011;14240;51.064;16.612;2023-04-24T03:15:06;17.80;;;12.38;;
26598;SDS011;14240;51.064;16.612;2023-04-24T03:17:32;19.65;;;12.70;;
26598;SDS011;14240;51.064;16.612;2023-04-24T03:20:02;19.30;;;12.77;;
26598;SDS011;14240;51.064;16.612;2023-04-24T03:22:30;15.65;;;10.93;;
26598;SDS011;14240;51.064;16.612;2023-04-24T03:24:57;16.30;;;10.90;;
26598;SDS011;14240;51.064;16.612;2023-04-24T03:27:23;12.57;;;9.60;;
26598;SDS011;14240;51.064;16.612;2023-04-24T03:29:49;15.18;;;10.65;;
26598;SDS011;14240;51.064;16.612;2023-04-24T03:32:19;15.75;;;10.05;;
26598;SDS011;14240;51.064;16.612;2023-04-24T03:34:45;16.45;;;10.40;;
26598;SDS011;14240;51.064;16.612;2023-04-24T03:37:10;15.18;;;9.75;;
26598;SDS011;14240;51.064;16.612;2023-04-24T03:39:37;13.00;;;9.68;;
26598;SDS011;14240;51.064;16.612;2023-04-24T03:42:11;13.70;;;9.02;;
26598;SDS011;14240;51.064;16.612;2023-04-24T03:44:37;15.40;;;8.38;;
26598;SDS011;14240;51.064;16.612;2023-04-24T03:47:03;13.57;;;7.82;;
26598;SDS011;14240;51.064;16.612;2023-04-24T03:49:29;12.25;;;7.97;;
26598;SDS011;14240;51.064;16.612;2023-04-24T03:51:55;14.93;;;7.97;;
26598;SDS011;14240;51.064;16.612;2023-04-24T03:54:20;11.65;;;7.28;;
26598;SDS011;14240;51.064;16.612;2023-04-24T03:56:46;10.25;;;7.32;;
26598;SDS011;14240;51.064;16.612;2023-04-24T03:59:12;11.57;;;7.72;;
26598;SDS011;14240;51.064;16.612;2023-04-24T04:01:38;11.60;;;7.15;;
26598;SDS011;14240;51.064;16.612;2023-04-24T04:04:07;15.45;;;7.80;;
26598;SDS011;14240;51.064;16.612;2023-04-24T04:06:33;11.43;;;7.47;;
26598;SDS011;14240;51.064;16.612;2023-04-24T04:11:28;11.20;;;7.93;;
26598;SDS011;14240;51.064;16.612;2023-04-24T04:13:55;8.88;;;6.45;;
26598;SDS011;14240;51.064;16.612;2023-04-24T04:16:21;13.07;;;7.53;;
26598;SDS011;14240;51.064;16.612;2023-04-24T04:18:47;8.93;;;6.60;;
26598;SDS011;14240;51.064;16.612;2023-04-24T04:21:13;8.85;;;6.78;;
26598;SDS011;14240;51.064;16.612;2023-04-24T04:23:39;12.80;;;7.28;;
26598;SDS011;14240;51.064;16.612;2023-04-24T04:26:05;11.65;;;7.47;;
26598;SDS011;14240;51.064;16.612;2023-04-24T04:28:31;13.07;;;7.95;;
26598;SDS011;14240;51.064;16.612;2023-04-24T04:30:57;9.75;;;6.65;;
26598;SDS011;14240;51.064;16.612;2023-04-24T04:33:23;10.85;;;7.55;;
26598;SDS011;14240;51.064;16.612;2023-04-24T04:35:49;12.65;;;7.35;;
26598;SDS011;14240;51.064;16.612;2023-04-24T04:38:18;11.48;;;8.63;;
26598;SDS011;14240;51.064;16.612;2023-04-24T04:40:44;18.85;;;7.93;;
26598;SDS011;14240;51.064;16.612;2023-04-24T04:43:11;12.13;;;7.00;;
26598;SDS011;14240;51.064;16.612;2023-04-24T04:45:38;15.65;;;9.32;;
26598;SDS011;14240;51.064;16.612;2023-04-24T04:48:06;18.45;;;10.25;;
26598;SDS011;14240;51.064;16.612;2023-04-24T04:50:37;14.90;;;9.40;;
26598;SDS011;14240;51.064;16.612;2023-04-24T04:53:03;21.95;;;12.60;;
26598;SDS011;14240;51.064;16.612;2023-04-24T04:55:29;15.38;;;9.18;;
26598;SDS011;14240;51.064;16.612;2023-04-24T04:57:55;12.90;;;8.90;;
26598;SDS011;14240;51.064;16.612;2023-04-24T05:00:21;16.55;;;10.32;;
26598;SDS011;14240;51.064;16.612;2023-04-24T05:02:50;12.52;;;9.20;;
26598;SDS011;14240;51.064;16.612;2023-04-24T05:05:16;10.98;;;7.32;;
26598;SDS011;14240;51.064;16.612;2023-04-24T05:07:42;13.10;;;8.18;;
26598;SDS011;14240;51.064;16.612;2023-04-24T05:10:08;17.20;;;8.32;;
26598;SDS011;14240;51.064;16.612;2023-04-24T05:12:35;9.35;;;7.53;;
26598;SDS011;14240;51.064;16.612;2023-04-24T05:15:01;9.10;;;6.78;;
26598;SDS011;14240;51.064;16.612;2023-04-24T05:17:27;10.25;;;7.18;;
26598;SDS011;14240;51.064;16.612;2023-04-24T05:19:53;11.38;;;6.88;;
26598;SDS011;14240;51.064;16.612;2023-04-24T05:22:19;9.52;;;7.15;;
26598;SDS011;14240;51.064;16.612;2023-04-24T05:24:46;11.02;;;6.95;;
26598;SDS011;14240;51.064;16.612;2023-04-24T05:27:12;10.18;;;6.75;;
26598;SDS011;14240;51.064;16.612;2023-04-24T05:29:38;10.32;;;7.03;;
26598;SDS011;14240;51.064;16.612;2023-04-24T05:32:03;12.10;;;7.95;;
26598;SDS011;14240;51.064;16.612;2023-04-24T05:34:29;18.45;;;8.52;;
26598;SDS011;14240;51.064;16.612;2023-04-24T05:36:55;12.60;;;8.45;;
26598;SDS011;14240;51.064;16.612;2023-04-24T05:39:21;10.18;;;7.43;;
26598;SDS011;14240;51.064;16.612;2023-04-24T05:41:47;11.15;;;7.40;;
26598;SDS011;14240;51.064;16.612;2023-04-24T05:44:12;10.40;;;8.15;;
26598;SDS011;14240;51.064;16.612;2023-04-24T05:46:38;17.95;;;9.85;;
26598;SDS011;14240;51.064;16.612;2023-04-24T05:49:04;21.10;;;12.75;;
26598;SDS011;14240;51.064;16.612;2023-04-24T05:51:30;27.48;;;11.00;;
26598;SDS011;14240;51.064;16.612;2023-04-24T05:53:56;17.70;;;9.30;;
26598;SDS011;14240;51.064;16.612;2023-04-24T05:56:22;27.27;;;10.95;;
26598;SDS011;14240;51.064;16.612;2023-04-24T05:58:48;34.92;;;13.52;;
26598;SDS011;14240;51.064;16.612;2023-04-24T06:01:14;25.25;;;10.00;;
26598;SDS011;14240;51.064;16.612;2023-04-24T06:03:40;16.00;;;9.27;;
26598;SDS011;14240;51.064;16.612;2023-04-24T06:06:07;14.23;;;9.95;;
26598;SDS011;14240;51.064;16.612;2023-04-24T06:08:33;17.58;;;10.18;;
26598;SDS011;14240;51.064;16.612;2023-04-24T06:10:59;71.03;;;26.92;;
26598;SDS011;14240;51.064;16.612;2023-04-24T06:13:25;56.00;;;19.63;;
26598;SDS011;14240;51.064;16.612;2023-04-24T06:15:52;24.23;;;12.13;;
26598;SDS011;14240;51.064;16.612;2023-04-24T06:18:20;41.55;;;22.90;;
26598;SDS011;14240;51.064;16.612;2023-04-24T06:20:46;10.38;;;7.75;;
26598;SDS011;14240;51.064;16.612;2023-04-24T06:23:12;13.93;;;9.10;;
26598;SDS011;14240;51.064;16.612;2023-04-24T06:25:38;19.67;;;9.18;;
26598;SDS011;14240;51.064;16.612;2023-04-24T06:28:04;14.18;;;9.73;;
26598;SDS011;14240;51.064;16.612;2023-04-24T06:30:30;18.48;;;10.02;;
26598;SDS011;14240;51.064;16.612;2023-04-24T06:32:56;16.58;;;10.57;;
26598;SDS011;14240;51.064;16.612;2023-04-24T06:35:22;16.02;;;10.40;;
26598;SDS011;14240;51.064;16.612;2023-04-24T06:37:48;14.48;;;10.50;;
26598;SDS011;14240;51.064;16.612;2023-04-24T06:40:14;27.70;;;15.25;;
26598;SDS011;14240;51.064;16.612;2023-04-24T06:42:40;14.27;;;10.13;;
26598;SDS011;14240;51.064;16.612;2023-04-24T06:45:12;17.80;;;12.68;;
26598;SDS011;14240;51.064;16.612;2023-04-24T06:47:38;15.52;;;10.10;;
26598;SDS011;14240;51.064;16.612;2023-04-24T06:50:04;19.50;;;11.32;;
26598;SDS011;14240;51.064;16.612;2023-04-24T06:52:30;15.18;;;11.20;;
26598;SDS011;14240;51.064;16.612;2023-04-24T06:55:02;13.45;;;9.30;;
26598;SDS011;14240;51.064;16.612;2023-04-24T06:57:29;18.05;;;12.68;;
26598;SDS011;14240;51.064;16.612;2023-04-24T06:59:55;20.02;;;12.32;;
26598;SDS011;14240;51.064;16.612;2023-04-24T07:02:21;15.70;;;11.07;;
26598;SDS011;14240;51.064;16.612;2023-04-24T07:04:47;13.52;;;9.43;;
26598;SDS011;14240;51.064;16.612;2023-04-24T07:07:13;13.48;;;9.57;;
26598;SDS011;14240;51.064;16.612;2023-04-24T07:09:39;13.05;;;8.50;;
26598;SDS011;14240;51.064;16.612;2023-04-24T07:12:10;11.75;;;8.65;;
26598;SDS011;14240;51.064;16.612;2023-04-24T07:14:37;20.80;;;13.65;;
26598;SDS011;14240;51.064;16.612;2023-04-24T07:17:03;30.88;;;20.63;;
26598;SDS011;14240;51.064;16.612;2023-04-24T07:19:30;16.98;;;11.30;;
26598;SDS011;14240;51.064;16.612;2023-04-24T07:21:56;13.27;;;9.00;;
26598;SDS011;14240;51.064;16.612;2023-04-24T07:24:23;11.27;;;7.82;;
26598;SDS011;14240;51.064;16.612;2023-04-24T07:26:50;17.98;;;10.52;;
26598;SDS011;14240;51.064;16.612;2023-04-24T07:29:17;18.50;;;11.40;;
26598;SDS011;14240;51.064;16.612;2023-04-24T07:31:43;22.58;;;12.27;;
26598;SDS011;14240;51.064;16.612;2023-04-24T07:34:09;36.38;;;16.55;;
26598;SDS011;14240;51.064;16.612;2023-04-24T07:36:35;15.20;;;8.70;;
26598;SDS011;14240;51.064;16.612;2023-04-24T07:39:03;21.48;;;9.85;;
26598;SDS011;14240;51.064;16.612;2023-04-24T07:41:29;10.57;;;6.57;;
26598;SDS011;14240;51.064;16.612;2023-04-24T07:43:55;17.67;;;10.05;;
26598;SDS011;14240;51.064;16.612;2023-04-24T07:46:20;14.25;;;7.97;;
26598;SDS011;14240;51.064;16.612;2023-04-24T07:48:48;21.45;;;9.23;;
26598;SDS011;14240;51.064;16.612;2023-04-24T07:51:14;14.52;;;8.95;;
26598;SDS011;14240;51.064;16.612;2023-04-24T07:53:40;11.60;;;8.02;;
26598;SDS011;14240;51.064;16.612;2023-04-24T07:56:06;10.25;;;8.32;;
26598;SDS011;14240;51.064;16.612;2023-04-24T07:58:32;10.10;;;7.28;;
26598;SDS011;14240;51.064;16.612;2023-04-24T08:00:59;9.63;;;6.32;;
26598;SDS011;14240;51.064;16.612;2023-04-24T08:03:24;7.00;;;6.28;;
26598;SDS011;14240;51.064;16.612;2023-04-24T08:05:50;5.57;;;4.82;;
26598;SDS011;14240;51.064;16.612;2023-04-24T08:08:16;5.93;;;4.80;;
26598;SDS011;14240;51.064;16.612;2023-04-24T08:10:42;6.18;;;4.97;;
26598;SDS011;14240;51.064;16.612;2023-04-24T08:13:08;7.45;;;4.88;;
26598;SDS011;14240;51.064;16.612;2023-04-24T08:15:36;7.43;;;4.57;;
26598;SDS011;14240;51.064;16.612;2023-04-24T08:18:02;6.68;;;4.80;;
26598;SDS011;14240;51.064;16.612;2023-04-24T08:20:28;6.45;;;4.20;;
26598;SDS011;14240;51.064;16.612;2023-04-24T08:22:54;5.10;;;3.75;;
26598;SDS011;14240;51.064;16.612;2023-04-24T08:25:21;5.30;;;4.57;;
26598;SDS011;14240;51.064;16.612;2023-04-24T08:27:48;7.07;;;4.25;;
26598;SDS011;14240;51.064;16.612;2023-04-24T08:30:14;8.30;;;5.00;;
26598;SDS011;14240;51.064;16.612;2023-04-24T08:32:40;6.28;;;4.40;;
26598;SDS011;14240;51.064;16.612;2023-04-24T08:35:06;6.45;;;4.90;;
26598;SDS011;14240;51.064;16.612;2023-04-24T08:37:36;4.72;;;4.28;;
26598;SDS011;14240;51.064;16.612;2023-04-24T08:40:28;9.00;;;5.88;;
26598;SDS011;14240;51.064;16.612;2023-04-24T08:42:54;6.20;;;4.50;;
26598;SDS011;14240;51.064;16.612;2023-04-24T08:45:22;5.28;;;4.78;;
26598;SDS011;14240;51.064;16.612;2023-04-24T08:47:49;7.43;;;4.65;;
26598;SDS011;14240;51.064;16.612;2023-04-24T08:50:17;10.02;;;4.53;;
26598;SDS011;14240;51.064;16.612;2023-04-24T08:52:43;5.78;;;5.00;;
26598;SDS011;14240;51.064;16.612;2023-04-24T08:55:09;7.72;;;5.25;;
26598;SDS011;14240;51.064;16.612;2023-04-24T08:57:34;5.43;;;4.35;;
26598;SDS011;14240;51.064;16.612;2023-04-24T09:00:03;6.90;;;4.95;;
26598;SDS011;14240;51.064;16.612;2023-04-24T09:04:57;14.95;;;6.60;;
26598;SDS011;14240;51.064;16.612;2023-04-24T09:07:24;21.13;;;8.13;;
26598;SDS011;14240;51.064;16.612;2023-04-24T09:09:52;8.50;;;5.25;;
26598;SDS011;14240;51.064;16.612;2023-04-24T09:12:19;27.58;;;6.13;;
26598;SDS011;14240;51.064;16.612;2023-04-24T09:14:45;5.53;;;4.65;;
26598;SDS011;14240;51.064;16.612;2023-04-24T09:17:13;8.45;;;4.85;;
26598;SDS011;14240;51.064;16.612;2023-04-24T09:19:38;7.50;;;5.13;;
26598;SDS011;14240;51.064;16.612;2023-04-24T09:22:05;6.15;;;4.95;;
26598;SDS011;14240;51.064;16.612;2023-04-24T09:24:34;6.53;;;5.03;;
26598;SDS011;14240;51.064;16.612;2023-04-24T09:27:01;9.38;;;6.05;;
26598;SDS011;14240;51.064;16.612;2023-04-24T09:29:27;5.47;;;4.72;;
26598;SDS011;14240;51.064;16.612;2023-04-24T09:31:53;9.45;;;5.03;;
26598;SDS011;14240;51.064;16.612;2023-04-24T09:34:23;9.77;;;5.20;;
26598;SDS011;14240;51.064;16.612;2023-04-24T09:36:50;5.35;;;4.13;;
26598;SDS011;14240;51.064;16.612;2023-04-24T09:39:17;4.47;;;3.60;;
26598;SDS011;14240;51.064;16.612;2023-04-24T09:41:54;5.35;;;3.75;;
26598;SDS011;14240;51.064;16.612;2023-04-24T09:44:25;6.72;;;4.70;;
26598;SDS011;14240;51.064;16.612;2023-04-24T09:46:53;6.22;;;4.47;;
26598;SDS011;14240;51.064;16.612;2023-04-24T09:51:51;5.68;;;3.92;;
26598;SDS011;14240;51.064;16.612;2023-04-24T09:54:18;7.18;;;4.47;;
26598;SDS011;14240;51.064;16.612;2023-04-24T09:56:50;6.18;;;4.80;;
26598;SDS011;14240;51.064;16.612;2023-04-24T09:59:17;9.15;;;5.30;;
26598;SDS011;14240;51.064;16.612;2023-04-24T10:01:46;9.82;;;6.65;;
26598;SDS011;14240;51.064;16.612;2023-04-24T10:04:20;13.10;;;7.00;;
26598;SDS011;14240;51.064;16.612;2023-04-24T10:06:48;7.13;;;5.68;;
26598;SDS011;14240;51.064;16.612;2023-04-24T10:09:15;7.50;;;5.40;;
26598;SDS011;14240;51.064;16.612;2023-04-24T10:11:43;8.25;;;5.70;;
26598;SDS011;14240;51.064;16.612;2023-04-24T10:14:12;8.63;;;6.00;;
26598;SDS011;14240;51.064;16.612;2023-04-24T10:16:39;8.05;;;5.82;;
26598;SDS011;14240;51.064;16.612;2023-04-24T10:19:05;5.85;;;5.20;;
26598;SDS011;14240;51.064;16.612;2023-04-24T10:21:32;8.63;;;4.65;;
26598;SDS011;14240;51.064;16.612;2023-04-24T10:23:59;5.67;;;5.03;;
26598;SDS011;14240;51.064;16.612;2023-04-24T10:26:28;6.18;;;4.95;;
26598;SDS011;14240;51.064;16.612;2023-04-24T10:28:54;9.00;;;5.13;;
26598;SDS011;14240;51.064;16.612;2023-04-24T10:31:23;6.05;;;5.35;;
26598;SDS011;14240;51.064;16.612;2023-04-24T10:33:50;12.93;;;7.05;;
26598;SDS011;14240;51.064;16.612;2023-04-24T10:38:43;10.27;;;5.78;;
26598;SDS011;14240;51.064;16.612;2023-04-24T10:41:12;8.90;;;5.10;;
26598;SDS011;14240;51.064;16.612;2023-04-24T10:43:44;8.30;;;5.43;;
26598;SDS011;14240;51.064;16.612;2023-04-24T10:46:16;11.98;;;6.55;;
26598;SDS011;14240;51.064;16.612;2023-04-24T10:48:51;8.43;;;5.65;;
26598;SDS011;14240;51.064;16.612;2023-04-24T10:51:21;11.10;;;7.00;;
26598;SDS011;14240;51.064;16.612;2023-04-24T10:56:52;21.73;;;8.68;;
26598;SDS011;14240;51.064;16.612;2023-04-24T10:59:25;25.95;;;9.45;;
26598;SDS011;14240;51.064;16.612;2023-04-24T11:01:53;14.98;;;7.32;;
26598;SDS011;14240;51.064;16.612;2023-04-24T11:04:30;10.35;;;6.70;;
26598;SDS011;14240;51.064;16.612;2023-04-24T11:06:57;11.63;;;6.88;;
26598;SDS011;14240;51.064;16.612;2023-04-24T11:09:24;10.77;;;7.00;;
26598;SDS011;14240;51.064;16.612;2023-04-24T11:11:53;12.18;;;8.52;;
26598;SDS011;14240;51.064;16.612;2023-04-24T11:17:37;27.00;;;16.80;;
26598;SDS011;14240;51.064;16.612;2023-04-24T11:20:08;27.23;;;17.02;;
26598;SDS011;14240;51.064;16.612;2023-04-24T11:22:41;13.38;;;9.70;;
26598;SDS011;14240;51.064;16.612;2023-04-24T11:25:08;33.65;;;19.98;;
26598;SDS011;14240;51.064;16.612;2023-04-24T11:27:40;27.10;;;15.88;;
26598;SDS011;14240;51.064;16.612;2023-04-24T11:30:16;17.33;;;10.85;;
26598;SDS011;14240;51.064;16.612;2023-04-24T11:32:47;8.65;;;7.00;;
26598;SDS011;14240;51.064;16.612;2023-04-24T11:35:18;9.45;;;6.70;;
26598;SDS011;14240;51.064;16.612;2023-04-24T11:37:50;12.15;;;7.35;;
26598;SDS011;14240;51.064;16.612;2023-04-24T11:40:20;16.52;;;10.90;;
26598;SDS011;14240;51.064;16.612;2023-04-24T11:42:51;12.40;;;8.10;;
26598;SDS011;14240;51.064;16.612;2023-04-24T11:47:46;11.07;;;5.30;;
26598;SDS011;14240;51.064;16.612;2023-04-24T11:50:13;4.78;;;3.83;;
26598;SDS011;14240;51.064;16.612;2023-04-24T11:52:41;5.55;;;3.75;;
26598;SDS011;14240;51.064;16.612;2023-04-24T11:57:44;5.28;;;2.95;;
26598;SDS011;14240;51.064;16.612;2023-04-24T12:00:21;3.50;;;2.33;;
26598;SDS011;14240;51.064;16.612;2023-04-24T12:02:49;4.50;;;3.03;;
26598;SDS011;14240;51.064;16.612;2023-04-24T12:05:25;3.28;;;2.55;;
26598;SDS011;14240;51.064;16.612;2023-04-24T12:07:52;6.70;;;2.20;;
26598;SDS011;14240;51.064;16.612;2023-04-24T12:10:21;3.72;;;2.10;;
26598;SDS011;14240;51.064;16.612;2023-04-24T12:12:51;2.05;;;1.80;;
26598;SDS011;14240;51.064;16.612;2023-04-24T12:15:21;2.80;;;1.63;;
26598;SDS011;14240;51.064;16.612;2023-04-24T12:17:47;1.45;;;1.35;;
26598;SDS011;14240;51.064;16.612;2023-04-24T12:20:15;3.50;;;2.45;;
26598;SDS011;14240;51.064;16.612;2023-04-24T12:22:49;4.65;;;2.33;;
26598;SDS011;14240;51.064;16.612;2023-04-24T12:25:20;3.97;;;2.80;;
26598;SDS011;14240;51.064;16.612;2023-04-24T12:27:51;6.60;;;2.10;;
26598;SDS011;14240;51.064;16.612;2023-04-24T12:30:19;2.30;;;1.83;;
26598;SDS011;14240;51.064;16.612;2023-04-24T12:32:45;5.60;;;2.38;;
26598;SDS011;14240;51.064;16.612;2023-04-24T12:35:12;4.20;;;2.50;;
26598;SDS011;14240;51.064;16.612;2023-04-24T12:37:44;4.90;;;2.63;;
26598;SDS011;14240;51.064;16.612;2023-04-24T12:40:11;3.38;;;2.38;;
26598;SDS011;14240;51.064;16.612;2023-04-24T12:45:18;3.25;;;2.25;;
26598;SDS011;14240;51.064;16.612;2023-04-24T12:47:45;4.88;;;2.50;;
26598;SDS011;14240;51.064;16.612;2023-04-24T12:50:14;3.78;;;2.88;;
26598;SDS011;14240;51.064;16.612;2023-04-24T12:52:40;4.82;;;3.15;;
26598;SDS011;14240;51.064;16.612;2023-04-24T12:55:07;5.55;;;3.03;;
26598;SDS011;14240;51.064;16.612;2023-04-24T12:57:34;5.60;;;4.10;;
26598;SDS011;14240;51.064;16.612;2023-04-24T13:00:00;6.10;;;3.53;;
26598;SDS011;14240;51.064;16.612;2023-04-24T13:02:27;4.00;;;3.10;;
26598;SDS011;14240;51.064;16.612;2023-04-24T13:04:55;37.88;;;21.02;;
26598;SDS011;14240;51.064;16.612;2023-04-24T13:07:21;57.22;;;29.15;;
26598;SDS011;14240;51.064;16.612;2023-04-24T13:09:47;68.15;;;30.92;;
26598;SDS011;14240;51.064;16.612;2023-04-24T13:12:14;86.28;;;33.58;;
26598;SDS011;14240;51.064;16.612;2023-04-24T13:14:40;112.82;;;47.47;;
26598;SDS011;14240;51.064;16.612;2023-04-24T13:17:06;320.52;;;140.88;;
26598;SDS011;14240;51.064;16.612;2023-04-24T13:19:51;211.70;;;100.43;;
26598;SDS011;14240;51.064;16.612;2023-04-24T13:22:19;63.70;;;31.60;;
26598;SDS011;14240;51.064;16.612;2023-04-24T13:24:45;19.77;;;9.68;;
26598;SDS011;14240;51.064;16.612;2023-04-24T13:27:10;17.75;;;7.32;;
26598;SDS011;14240;51.064;16.612;2023-04-24T13:29:36;13.52;;;6.57;;
26598;SDS011;14240;51.064;16.612;2023-04-24T13:32:03;11.88;;;6.55;;
26598;SDS011;14240;51.064;16.612;2023-04-24T13:34:28;7.97;;;5.03;;
26598;SDS011;14240;51.064;16.612;2023-04-24T13:36:55;14.23;;;7.18;;
26598;SDS011;14240;51.064;16.612;2023-04-24T13:39:22;9.57;;;6.35;;
26598;SDS011;14240;51.064;16.612;2023-04-24T13:41:48;11.20;;;6.03;;
26598;SDS011;14240;51.064;16.612;2023-04-24T13:44:17;12.20;;;7.57;;
26598;SDS011;14240;51.064;16.612;2023-04-24T13:46:45;18.70;;;10.75;;
26598;SDS011;14240;51.064;16.612;2023-04-24T13:49:12;12.85;;;6.35;;
26598;SDS011;14240;51.064;16.612;2023-04-24T13:51:38;6.63;;;4.77;;
26598;SDS011;14240;51.064;16.612;2023-04-24T13:54:05;6.82;;;4.72;;
26598;SDS011;14240;51.064;16.612;2023-04-24T13:56:31;12.80;;;6.82;;
26598;SDS011;14240;51.064;16.612;2023-04-24T13:58:57;7.15;;;5.28;;
26598;SDS011;14240;51.064;16.612;2023-04-24T14:01:23;12.15;;;6.50;;
26598;SDS011;14240;51.064;16.612;2023-04-24T14:03:52;8.40;;;5.47;;
26598;SDS011;14240;51.064;16.612;2023-04-24T14:06:18;13.20;;;5.55;;
26598;SDS011;14240;51.064;16.612;2023-04-24T14:08:45;5.88;;;3.20;;
26598;SDS011;14240;51.064;16.612;2023-04-24T14:11:11;8.13;;;3.95;;
26598;SDS011;14240;51.064;16.612;2023-04-24T14:13:37;5.10;;;3.50;;
26598;SDS011;14240;51.064;16.612;2023-04-24T14:16:07;6.70;;;3.25;;
26598;SDS011;14240;51.064;16.612;2023-04-24T14:18:33;7.68;;;3.30;;
26598;SDS011;14240;51.064;16.612;2023-04-24T14:20:59;4.07;;;2.95;;
26598;SDS011;14240;51.064;16.612;2023-04-24T14:23:26;9.60;;;4.50;;
26598;SDS011;14240;51.064;16.612;2023-04-24T14:25:52;4.70;;;2.40;;
26598;SDS011;14240;51.064;16.612;2023-04-24T14:28:18;4.22;;;2.30;;
26598;SDS011;14240;51.064;16.612;2023-04-24T14:30:45;5.37;;;2.40;;
26598;SDS011;14240;51.064;16.612;2023-04-24T14:33:11;4.72;;;2.63;;
26598;SDS011;14240;51.064;16.612;2023-04-24T14:35:38;4.53;;;2.50;;
26598;SDS011;14240;51.064;16.612;2023-04-24T14:38:05;6.07;;;3.95;;
26598;SDS011;14240;51.064;16.612;2023-04-24T14:40:31;6.22;;;2.90;;
26598;SDS011;14240;51.064;16.612;2023-04-24T14:42:57;3.92;;;2.83;;